sensor_id;sensor_type;location;lat;lon;timestamp;P1;durP1;ratioP1;P2;durP2;ratioP2
8399;SDS011;4237;47.030;15.396;2024-01-30T00:02:22;22.40;;;14.57;;
8399;SDS011;4237;47.030;15.396;2024-01-30T00:04:51;20.23;;;13.90;;
8399;SDS011;4237;47.030;15.396;2024-01-30T00:07:19;23.17;;;14.07;;
8399;SDS011;4237;47.030;15.396;2024-01-30T00:09:48;20.07;;;13.23;;
8399;SDS011;4237;47.030;15.396;2024-01-30T00:12:17;20.40;;;13.43;;
8399;SDS011;4237;47.030;15.396;2024-01-30T00:14:45;21.10;;;14.53;;
8399;SDS011;4237;47.030;15.396;2024-01-30T00:17:14;23.57;;;14.30;;
8399;SDS011;4237;47.030;15.396;2024-01-30T00:19:42;19.33;;;14.30;;
8399;SDS011;4237;47.030;15.396;2024-01-30T00:22:11;23.30;;;14.10;;
8399;SDS011;4237;47.030;15.396;2024-01-30T00:24:39;19.60;;;13.07;;
8399;SDS011;4237;47.030;15.396;2024-01-30T00:27:08;17.20;;;12.40;;
8399;SDS011;4237;47.030;15.396;2024-01-30T00:29:36;17.03;;;12.63;;
8399;SDS011;4237;47.030;15.396;2024-01-30T00:32:05;18.57;;;13.10;;
8399;SDS011;4237;47.030;15.396;2024-01-30T00:34:34;20.80;;;13.33;;
8399;SDS011;4237;47.030;15.396;2024-01-30T00:37:02;20.00;;;12.60;;
8399;SDS011;4237;47.030;15.396;2024-01-30T00:39:31;18.97;;;12.63;;
8399;SDS011;4237;47.030;15.396;2024-01-30T00:42:00;18.80;;;13.47;;
8399;SDS011;4237;47.030;15.396;2024-01-30T00:44:28;21.87;;;14.73;;
8399;SDS011;4237;47.030;15.396;2024-01-30T00:46:57;21.73;;;14.83;;
8399;SDS011;4237;47.030;15.396;2024-01-30T00:49:25;18.93;;;13.03;;
8399;SDS011;4237;47.030;15.396;2024-01-30T00:51:54;22.33;;;13.90;;
8399;SDS011;4237;47.030;15.396;2024-01-30T00:54:22;21.40;;;15.20;;
8399;SDS011;4237;47.030;15.396;2024-01-30T00:56:51;23.33;;;14.27;;
8399;SDS011;4237;47.030;15.396;2024-01-30T00:59:20;20.57;;;14.10;;
8399;SDS011;4237;47.030;15.396;2024-01-30T01:01:48;20.93;;;14.30;;
8399;SDS011;4237;47.030;15.396;2024-01-30T01:04:17;18.83;;;13.37;;
8399;SDS011;4237;47.030;15.396;2024-01-30T01:06:45;20.40;;;14.07;;
8399;SDS011;4237;47.030;15.396;2024-01-30T01:09:14;17.10;;;13.27;;
8399;SDS011;4237;47.030;15.396;2024-01-30T01:11:43;23.00;;;15.80;;
8399;SDS011;4237;47.030;15.396;2024-01-30T01:14:11;21.00;;;14.23;;
8399;SDS011;4237;47.030;15.396;2024-01-30T01:16:40;19.33;;;13.83;;
8399;SDS011;4237;47.030;15.396;2024-01-30T01:19:09;20.17;;;12.93;;
8399;SDS011;4237;47.030;15.396;2024-01-30T01:21:37;22.20;;;14.30;;
8399;SDS011;4237;47.030;15.396;2024-01-30T01:24:06;22.00;;;14.93;;
8399;SDS011;4237;47.030;15.396;2024-01-30T01:26:34;19.43;;;12.77;;
8399;SDS011;4237;47.030;15.396;2024-01-30T01:29:03;21.10;;;14.70;;
8399;SDS011;4237;47.030;15.396;2024-01-30T01:31:33;20.87;;;13.30;;
8399;SDS011;4237;47.030;15.396;2024-01-30T01:34:02;18.37;;;13.30;;
8399;SDS011;4237;47.030;15.396;2024-01-30T01:36:30;17.93;;;12.93;;
8399;SDS011;4237;47.030;15.396;2024-01-30T01:38:59;19.27;;;13.60;;
8399;SDS011;4237;47.030;15.396;2024-01-30T01:41:31;18.37;;;13.40;;
8399;SDS011;4237;47.030;15.396;2024-01-30T01:44:00;17.63;;;12.73;;
8399;SDS011;4237;47.030;15.396;2024-01-30T01:46:30;17.37;;;13.57;;
8399;SDS011;4237;47.030;15.396;2024-01-30T01:49:00;20.37;;;13.17;;
8399;SDS011;4237;47.030;15.396;2024-01-30T01:51:31;21.40;;;14.10;;
8399;SDS011;4237;47.030;15.396;2024-01-30T01:54:04;19.70;;;12.63;;
8399;SDS011;4237;47.030;15.396;2024-01-30T01:56:33;20.13;;;13.13;;
8399;SDS011;4237;47.030;15.396;2024-01-30T01:59:05;18.47;;;12.73;;
8399;SDS011;4237;47.030;15.396;2024-01-30T02:01:36;16.53;;;12.80;;
8399;SDS011;4237;47.030;15.396;2024-01-30T02:04:05;18.90;;;12.57;;
8399;SDS011;4237;47.030;15.396;2024-01-30T02:06:34;16.77;;;11.83;;
8399;SDS011;4237;47.030;15.396;2024-01-30T02:09:03;23.37;;;13.87;;
8399;SDS011;4237;47.030;15.396;2024-01-30T02:11:32;17.87;;;11.53;;
8399;SDS011;4237;47.030;15.396;2024-01-30T02:14:04;17.57;;;13.07;;
8399;SDS011;4237;47.030;15.396;2024-01-30T02:16:32;20.30;;;12.70;;
8399;SDS011;4237;47.030;15.396;2024-01-30T02:19:01;18.03;;;12.83;;
8399;SDS011;4237;47.030;15.396;2024-01-30T02:21:30;18.93;;;13.03;;
8399;SDS011;4237;47.030;15.396;2024-01-30T02:23:58;20.57;;;13.67;;
8399;SDS011;4237;47.030;15.396;2024-01-30T02:26:28;20.30;;;14.87;;
8399;SDS011;4237;47.030;15.396;2024-01-30T02:28:57;19.80;;;13.60;;
8399;SDS011;4237;47.030;15.396;2024-01-30T02:31:25;20.17;;;13.87;;
8399;SDS011;4237;47.030;15.396;2024-01-30T02:33:54;25.03;;;17.83;;
8399;SDS011;4237;47.030;15.396;2024-01-30T02:36:23;20.03;;;14.33;;
8399;SDS011;4237;47.030;15.396;2024-01-30T02:38:51;22.47;;;15.93;;
8399;SDS011;4237;47.030;15.396;2024-01-30T02:41:20;23.30;;;15.67;;
8399;SDS011;4237;47.030;15.396;2024-01-30T02:43:48;23.97;;;15.20;;
8399;SDS011;4237;47.030;15.396;2024-01-30T02:46:17;23.00;;;15.20;;
8399;SDS011;4237;47.030;15.396;2024-01-30T02:48:45;27.47;;;17.67;;
8399;SDS011;4237;47.030;15.396;2024-01-30T02:51:14;42.77;;;22.40;;
8399;SDS011;4237;47.030;15.396;2024-01-30T02:53:42;32.23;;;18.87;;
8399;SDS011;4237;47.030;15.396;2024-01-30T02:56:11;33.00;;;19.57;;
8399;SDS011;4237;47.030;15.396;2024-01-30T02:58:40;26.40;;;16.43;;
8399;SDS011;4237;47.030;15.396;2024-01-30T03:01:09;24.50;;;15.57;;
8399;SDS011;4237;47.030;15.396;2024-01-30T03:03:37;28.73;;;17.77;;
8399;SDS011;4237;47.030;15.396;2024-01-30T03:06:07;24.97;;;16.27;;
8399;SDS011;4237;47.030;15.396;2024-01-30T03:08:36;26.90;;;16.27;;
8399;SDS011;4237;47.030;15.396;2024-01-30T03:11:04;23.33;;;16.00;;
8399;SDS011;4237;47.030;15.396;2024-01-30T03:13:33;25.13;;;16.10;;
8399;SDS011;4237;47.030;15.396;2024-01-30T03:16:01;21.97;;;14.80;;
8399;SDS011;4237;47.030;15.396;2024-01-30T03:18:30;22.20;;;15.37;;
8399;SDS011;4237;47.030;15.396;2024-01-30T03:20:58;22.80;;;14.53;;
8399;SDS011;4237;47.030;15.396;2024-01-30T03:23:27;22.63;;;14.67;;
8399;SDS011;4237;47.030;15.396;2024-01-30T03:25:56;21.33;;;14.33;;
8399;SDS011;4237;47.030;15.396;2024-01-30T03:28:24;22.07;;;15.27;;
8399;SDS011;4237;47.030;15.396;2024-01-30T03:30:53;21.63;;;14.40;;
8399;SDS011;4237;47.030;15.396;2024-01-30T03:33:22;23.03;;;14.43;;
8399;SDS011;4237;47.030;15.396;2024-01-30T03:35:50;19.37;;;14.00;;
8399;SDS011;4237;47.030;15.396;2024-01-30T03:38:19;19.73;;;13.47;;
8399;SDS011;4237;47.030;15.396;2024-01-30T03:40:47;20.30;;;14.07;;
8399;SDS011;4237;47.030;15.396;2024-01-30T03:43:16;23.00;;;13.93;;
8399;SDS011;4237;47.030;15.396;2024-01-30T03:45:44;22.30;;;12.87;;
8399;SDS011;4237;47.030;15.396;2024-01-30T03:48:13;21.43;;;14.57;;
8399;SDS011;4237;47.030;15.396;2024-01-30T03:50:41;18.10;;;13.23;;
8399;SDS011;4237;47.030;15.396;2024-01-30T03:53:10;19.67;;;12.63;;
8399;SDS011;4237;47.030;15.396;2024-01-30T03:55:39;16.63;;;12.17;;
8399;SDS011;4237;47.030;15.396;2024-01-30T03:58:07;20.37;;;13.40;;
8399;SDS011;4237;47.030;15.396;2024-01-30T04:00:36;17.87;;;12.57;;
8399;SDS011;4237;47.030;15.396;2024-01-30T04:03:04;19.17;;;12.57;;
8399;SDS011;4237;47.030;15.396;2024-01-30T04:05:33;21.87;;;12.37;;
8399;SDS011;4237;47.030;15.396;2024-01-30T04:08:01;17.20;;;13.00;;
8399;SDS011;4237;47.030;15.396;2024-01-30T04:10:30;19.20;;;11.57;;
8399;SDS011;4237;47.030;15.396;2024-01-30T04:12:59;18.53;;;13.00;;
8399;SDS011;4237;47.030;15.396;2024-01-30T04:15:27;20.23;;;12.60;;
8399;SDS011;4237;47.030;15.396;2024-01-30T04:17:59;16.27;;;12.03;;
8399;SDS011;4237;47.030;15.396;2024-01-30T04:20:27;18.27;;;13.10;;
8399;SDS011;4237;47.030;15.396;2024-01-30T04:22:57;20.30;;;13.97;;
8399;SDS011;4237;47.030;15.396;2024-01-30T04:25:25;21.30;;;14.13;;
8399;SDS011;4237;47.030;15.396;2024-01-30T04:27:54;18.20;;;11.83;;
8399;SDS011;4237;47.030;15.396;2024-01-30T04:30:22;20.13;;;13.00;;
8399;SDS011;4237;47.030;15.396;2024-01-30T04:32:51;17.43;;;11.70;;
8399;SDS011;4237;47.030;15.396;2024-01-30T04:35:19;17.03;;;12.90;;
8399;SDS011;4237;47.030;15.396;2024-01-30T04:37:51;17.40;;;12.43;;
8399;SDS011;4237;47.030;15.396;2024-01-30T04:40:20;16.27;;;12.17;;
8399;SDS011;4237;47.030;15.396;2024-01-30T04:42:49;18.27;;;12.50;;
8399;SDS011;4237;47.030;15.396;2024-01-30T04:45:17;19.90;;;11.90;;
8399;SDS011;4237;47.030;15.396;2024-01-30T04:47:46;16.10;;;12.47;;
8399;SDS011;4237;47.030;15.396;2024-01-30T04:50:15;19.33;;;12.47;;
8399;SDS011;4237;47.030;15.396;2024-01-30T04:52:43;18.70;;;12.33;;
8399;SDS011;4237;47.030;15.396;2024-01-30T04:55:12;19.40;;;12.43;;
8399;SDS011;4237;47.030;15.396;2024-01-30T04:57:40;25.43;;;13.17;;
8399;SDS011;4237;47.030;15.396;2024-01-30T05:00:09;21.07;;;12.80;;
8399;SDS011;4237;47.030;15.396;2024-01-30T05:02:38;18.77;;;13.03;;
8399;SDS011;4237;47.030;15.396;2024-01-30T05:05:07;17.33;;;12.63;;
8399;SDS011;4237;47.030;15.396;2024-01-30T05:07:36;17.63;;;12.47;;
8399;SDS011;4237;47.030;15.396;2024-01-30T05:10:04;17.53;;;11.43;;
8399;SDS011;4237;47.030;15.396;2024-01-30T05:12:33;19.87;;;13.70;;
8399;SDS011;4237;47.030;15.396;2024-01-30T05:15:02;18.13;;;12.27;;
8399;SDS011;4237;47.030;15.396;2024-01-30T05:17:31;19.33;;;13.07;;
8399;SDS011;4237;47.030;15.396;2024-01-30T05:20:00;18.23;;;12.97;;
8399;SDS011;4237;47.030;15.396;2024-01-30T05:22:29;21.83;;;14.47;;
8399;SDS011;4237;47.030;15.396;2024-01-30T05:24:57;19.33;;;13.33;;
8399;SDS011;4237;47.030;15.396;2024-01-30T05:27:26;19.20;;;13.03;;
8399;SDS011;4237;47.030;15.396;2024-01-30T05:29:54;20.83;;;13.03;;
8399;SDS011;4237;47.030;15.396;2024-01-30T05:32:23;17.70;;;12.70;;
8399;SDS011;4237;47.030;15.396;2024-01-30T05:34:51;16.77;;;12.50;;
8399;SDS011;4237;47.030;15.396;2024-01-30T05:37:20;21.10;;;13.60;;
8399;SDS011;4237;47.030;15.396;2024-01-30T05:39:49;20.27;;;13.33;;
8399;SDS011;4237;47.030;15.396;2024-01-30T05:42:17;21.37;;;12.93;;
8399;SDS011;4237;47.030;15.396;2024-01-30T05:44:46;20.13;;;12.47;;
8399;SDS011;4237;47.030;15.396;2024-01-30T05:47:14;18.20;;;13.17;;
8399;SDS011;4237;47.030;15.396;2024-01-30T05:49:43;20.07;;;12.40;;
8399;SDS011;4237;47.030;15.396;2024-01-30T05:52:12;17.97;;;11.80;;
8399;SDS011;4237;47.030;15.396;2024-01-30T05:54:42;18.73;;;11.47;;
8399;SDS011;4237;47.030;15.396;2024-01-30T05:57:10;16.47;;;12.10;;
8399;SDS011;4237;47.030;15.396;2024-01-30T05:59:39;19.27;;;12.43;;
8399;SDS011;4237;47.030;15.396;2024-01-30T06:02:07;20.10;;;13.03;;
8399;SDS011;4237;47.030;15.396;2024-01-30T06:04:37;22.00;;;13.67;;
8399;SDS011;4237;47.030;15.396;2024-01-30T06:07:06;22.60;;;14.57;;
8399;SDS011;4237;47.030;15.396;2024-01-30T06:09:34;25.07;;;16.10;;
8399;SDS011;4237;47.030;15.396;2024-01-30T06:12:03;24.63;;;15.23;;
8399;SDS011;4237;47.030;15.396;2024-01-30T06:14:32;36.70;;;21.93;;
8399;SDS011;4237;47.030;15.396;2024-01-30T06:17:01;33.53;;;21.40;;
8399;SDS011;4237;47.030;15.396;2024-01-30T06:19:30;26.50;;;17.93;;
8399;SDS011;4237;47.030;15.396;2024-01-30T06:21:58;33.90;;;20.93;;
8399;SDS011;4237;47.030;15.396;2024-01-30T06:24:27;38.80;;;22.63;;
8399;SDS011;4237;47.030;15.396;2024-01-30T06:26:55;31.30;;;19.67;;
8399;SDS011;4237;47.030;15.396;2024-01-30T06:29:24;32.63;;;20.83;;
8399;SDS011;4237;47.030;15.396;2024-01-30T06:31:53;33.57;;;21.53;;
8399;SDS011;4237;47.030;15.396;2024-01-30T06:34:22;38.80;;;21.20;;
8399;SDS011;4237;47.030;15.396;2024-01-30T06:36:50;31.23;;;20.33;;
8399;SDS011;4237;47.030;15.396;2024-01-30T06:39:19;34.40;;;20.93;;
8399;SDS011;4237;47.030;15.396;2024-01-30T06:41:48;31.47;;;19.23;;
8399;SDS011;4237;47.030;15.396;2024-01-30T06:44:16;33.50;;;19.40;;
8399;SDS011;4237;47.030;15.396;2024-01-30T06:46:45;26.07;;;15.63;;
8399;SDS011;4237;47.030;15.396;2024-01-30T06:49:13;25.47;;;15.50;;
8399;SDS011;4237;47.030;15.396;2024-01-30T06:51:42;23.43;;;14.87;;
8399;SDS011;4237;47.030;15.396;2024-01-30T06:54:10;23.67;;;15.53;;
8399;SDS011;4237;47.030;15.396;2024-01-30T06:56:39;23.03;;;14.60;;
8399;SDS011;4237;47.030;15.396;2024-01-30T06:59:08;20.93;;;13.87;;
8399;SDS011;4237;47.030;15.396;2024-01-30T07:01:37;20.00;;;13.03;;
8399;SDS011;4237;47.030;15.396;2024-01-30T07:04:05;23.60;;;13.70;;
8399;SDS011;4237;47.030;15.396;2024-01-30T07:06:34;21.20;;;14.13;;
8399;SDS011;4237;47.030;15.396;2024-01-30T07:09:02;20.13;;;14.17;;
8399;SDS011;4237;47.030;15.396;2024-01-30T07:11:31;18.30;;;13.07;;
8399;SDS011;4237;47.030;15.396;2024-01-30T07:14:00;18.57;;;11.83;;
8399;SDS011;4237;47.030;15.396;2024-01-30T07:16:30;18.33;;;11.53;;
8399;SDS011;4237;47.030;15.396;2024-01-30T07:18:59;14.87;;;11.07;;
8399;SDS011;4237;47.030;15.396;2024-01-30T07:21:28;16.63;;;11.53;;
8399;SDS011;4237;47.030;15.396;2024-01-30T07:23:56;16.83;;;11.20;;
8399;SDS011;4237;47.030;15.396;2024-01-30T07:26:25;13.17;;;10.60;;
8399;SDS011;4237;47.030;15.396;2024-01-30T07:28:54;14.57;;;10.67;;
8399;SDS011;4237;47.030;15.396;2024-01-30T07:31:22;14.67;;;11.00;;
8399;SDS011;4237;47.030;15.396;2024-01-30T07:33:51;17.57;;;11.30;;
8399;SDS011;4237;47.030;15.396;2024-01-30T07:36:20;15.03;;;11.90;;
8399;SDS011;4237;47.030;15.396;2024-01-30T07:38:48;17.43;;;11.00;;
8399;SDS011;4237;47.030;15.396;2024-01-30T07:41:17;14.13;;;10.93;;
8399;SDS011;4237;47.030;15.396;2024-01-30T07:43:45;14.80;;;11.57;;
8399;SDS011;4237;47.030;15.396;2024-01-30T07:46:14;20.43;;;13.37;;
8399;SDS011;4237;47.030;15.396;2024-01-30T07:48:42;19.70;;;13.47;;
8399;SDS011;4237;47.030;15.396;2024-01-30T07:51:11;20.47;;;13.83;;
8399;SDS011;4237;47.030;15.396;2024-01-30T07:53:40;18.67;;;13.47;;
8399;SDS011;4237;47.030;15.396;2024-01-30T07:56:09;25.33;;;13.13;;
8399;SDS011;4237;47.030;15.396;2024-01-30T07:58:37;16.60;;;12.80;;
8399;SDS011;4237;47.030;15.396;2024-01-30T08:01:06;18.33;;;12.90;;
8399;SDS011;4237;47.030;15.396;2024-01-30T08:03:34;19.03;;;12.23;;
8399;SDS011;4237;47.030;15.396;2024-01-30T08:06:03;17.90;;;11.97;;
8399;SDS011;4237;47.030;15.396;2024-01-30T08:08:33;19.70;;;13.40;;
8399;SDS011;4237;47.030;15.396;2024-01-30T08:11:02;22.03;;;13.53;;
8399;SDS011;4237;47.030;15.396;2024-01-30T08:13:31;18.40;;;13.23;;
8399;SDS011;4237;47.030;15.396;2024-01-30T08:15:59;17.97;;;11.60;;
8399;SDS011;4237;47.030;15.396;2024-01-30T08:18:28;16.60;;;11.90;;
8399;SDS011;4237;47.030;15.396;2024-01-30T08:20:56;18.93;;;12.80;;
8399;SDS011;4237;47.030;15.396;2024-01-30T08:23:25;14.07;;;12.00;;
8399;SDS011;4237;47.030;15.396;2024-01-30T08:25:54;16.07;;;12.27;;
8399;SDS011;4237;47.030;15.396;2024-01-30T08:28:22;15.13;;;12.60;;
8399;SDS011;4237;47.030;15.396;2024-01-30T08:30:51;16.83;;;12.40;;
8399;SDS011;4237;47.030;15.396;2024-01-30T08:33:19;16.37;;;12.47;;
8399;SDS011;4237;47.030;15.396;2024-01-30T08:35:48;16.60;;;13.00;;
8399;SDS011;4237;47.030;15.396;2024-01-30T08:38:17;17.03;;;12.13;;
8399;SDS011;4237;47.030;15.396;2024-01-30T08:40:45;17.87;;;12.17;;
8399;SDS011;4237;47.030;15.396;2024-01-30T08:43:14;19.77;;;12.73;;
8399;SDS011;4237;47.030;15.396;2024-01-30T08:45:43;19.33;;;11.90;;
8399;SDS011;4237;47.030;15.396;2024-01-30T08:48:11;16.57;;;12.37;;
8399;SDS011;4237;47.030;15.396;2024-01-30T08:50:40;17.93;;;12.40;;
8399;SDS011;4237;47.030;15.396;2024-01-30T08:53:08;17.30;;;12.13;;
8399;SDS011;4237;47.030;15.396;2024-01-30T08:55:37;15.23;;;11.70;;
8399;SDS011;4237;47.030;15.396;2024-01-30T08:58:06;14.93;;;11.27;;
8399;SDS011;4237;47.030;15.396;2024-01-30T09:00:34;13.00;;;9.43;;
8399;SDS011;4237;47.030;15.396;2024-01-30T09:03:03;13.47;;;9.87;;
8399;SDS011;4237;47.030;15.396;2024-01-30T09:05:32;15.20;;;10.67;;
8399;SDS011;4237;47.030;15.396;2024-01-30T09:08:00;18.03;;;11.00;;
8399;SDS011;4237;47.030;15.396;2024-01-30T09:10:29;18.33;;;11.10;;
8399;SDS011;4237;47.030;15.396;2024-01-30T09:12:57;16.60;;;12.03;;
8399;SDS011;4237;47.030;15.396;2024-01-30T09:15:26;12.87;;;11.37;;
8399;SDS011;4237;47.030;15.396;2024-01-30T09:17:54;14.07;;;11.33;;
8399;SDS011;4237;47.030;15.396;2024-01-30T09:20:23;16.03;;;12.20;;
8399;SDS011;4237;47.030;15.396;2024-01-30T09:22:52;13.00;;;11.63;;
8399;SDS011;4237;47.030;15.396;2024-01-30T09:25:20;17.23;;;11.67;;
8399;SDS011;4237;47.030;15.396;2024-01-30T09:27:49;16.37;;;11.70;;
8399;SDS011;4237;47.030;15.396;2024-01-30T09:30:17;17.73;;;12.27;;
8399;SDS011;4237;47.030;15.396;2024-01-30T09:32:46;15.57;;;12.10;;
8399;SDS011;4237;47.030;15.396;2024-01-30T09:35:15;21.67;;;12.13;;
8399;SDS011;4237;47.030;15.396;2024-01-30T09:37:43;24.73;;;12.70;;
8399;SDS011;4237;47.030;15.396;2024-01-30T09:40:12;21.33;;;12.13;;
8399;SDS011;4237;47.030;15.396;2024-01-30T09:42:40;19.77;;;11.87;;
8399;SDS011;4237;47.030;15.396;2024-01-30T09:45:12;22.20;;;11.40;;
8399;SDS011;4237;47.030;15.396;2024-01-30T09:47:42;18.70;;;10.37;;
8399;SDS011;4237;47.030;15.396;2024-01-30T09:50:12;15.80;;;9.63;;
8399;SDS011;4237;47.030;15.396;2024-01-30T09:52:47;21.70;;;11.00;;
8399;SDS011;4237;47.030;15.396;2024-01-30T09:55:12;16.20;;;11.83;;
8399;SDS011;4237;47.030;15.396;2024-01-30T09:57:41;17.03;;;10.53;;
8399;SDS011;4237;47.030;15.396;2024-01-30T10:00:10;16.40;;;10.07;;
8399;SDS011;4237;47.030;15.396;2024-01-30T10:02:41;20.90;;;10.47;;
8399;SDS011;4237;47.030;15.396;2024-01-30T10:05:10;12.30;;;9.17;;
8399;SDS011;4237;47.030;15.396;2024-01-30T10:07:49;17.77;;;11.97;;
8399;SDS011;4237;47.030;15.396;2024-01-30T10:10:18;20.57;;;13.33;;
8399;SDS011;4237;47.030;15.396;2024-01-30T10:12:49;19.20;;;11.47;;
8399;SDS011;4237;47.030;15.396;2024-01-30T10:15:18;20.47;;;11.60;;
8399;SDS011;4237;47.030;15.396;2024-01-30T10:17:46;21.00;;;13.13;;
8399;SDS011;4237;47.030;15.396;2024-01-30T10:20:15;16.97;;;12.00;;
8399;SDS011;4237;47.030;15.396;2024-01-30T10:22:44;16.20;;;10.97;;
8399;SDS011;4237;47.030;15.396;2024-01-30T10:25:13;19.23;;;10.60;;
8399;SDS011;4237;47.030;15.396;2024-01-30T10:27:43;17.43;;;9.93;;
8399;SDS011;4237;47.030;15.396;2024-01-30T10:30:12;14.03;;;8.57;;
8399;SDS011;4237;47.030;15.396;2024-01-30T10:32:40;13.40;;;8.83;;
8399;SDS011;4237;47.030;15.396;2024-01-30T10:35:09;11.90;;;8.27;;
8399;SDS011;4237;47.030;15.396;2024-01-30T10:37:37;13.30;;;8.43;;
8399;SDS011;4237;47.030;15.396;2024-01-30T10:40:06;12.03;;;9.20;;
8399;SDS011;4237;47.030;15.396;2024-01-30T10:42:36;11.80;;;7.97;;
8399;SDS011;4237;47.030;15.396;2024-01-30T10:45:07;11.63;;;8.43;;
8399;SDS011;4237;47.030;15.396;2024-01-30T10:47:52;13.00;;;8.20;;
8399;SDS011;4237;47.030;15.396;2024-01-30T10:50:29;16.50;;;9.37;;
8399;SDS011;4237;47.030;15.396;2024-01-30T10:52:54;12.07;;;9.00;;
8399;SDS011;4237;47.030;15.396;2024-01-30T10:55:23;13.83;;;8.80;;
8399;SDS011;4237;47.030;15.396;2024-01-30T10:57:55;14.13;;;9.17;;
8399;SDS011;4237;47.030;15.396;2024-01-30T11:00:23;15.13;;;9.23;;
8399;SDS011;4237;47.030;15.396;2024-01-30T11:02:53;11.53;;;8.23;;
8399;SDS011;4237;47.030;15.396;2024-01-30T11:05:24;15.67;;;8.77;;
8399;SDS011;4237;47.030;15.396;2024-01-30T11:07:53;11.07;;;8.50;;
8399;SDS011;4237;47.030;15.396;2024-01-30T11:10:22;9.77;;;7.77;;
8399;SDS011;4237;47.030;15.396;2024-01-30T11:12:52;12.87;;;7.77;;
8399;SDS011;4237;47.030;15.396;2024-01-30T11:15:21;12.60;;;8.43;;
8399;SDS011;4237;47.030;15.396;2024-01-30T11:17:51;14.67;;;8.20;;
8399;SDS011;4237;47.030;15.396;2024-01-30T11:20:20;13.07;;;8.23;;
8399;SDS011;4237;47.030;15.396;2024-01-30T11:22:54;13.27;;;8.23;;
8399;SDS011;4237;47.030;15.396;2024-01-30T11:25:24;18.23;;;9.00;;
8399;SDS011;4237;47.030;15.396;2024-01-30T11:27:53;15.20;;;8.50;;
8399;SDS011;4237;47.030;15.396;2024-01-30T11:30:26;13.50;;;8.17;;
8399;SDS011;4237;47.030;15.396;2024-01-30T11:33:05;12.13;;;7.97;;
8399;SDS011;4237;47.030;15.396;2024-01-30T11:35:41;11.33;;;8.27;;
8399;SDS011;4237;47.030;15.396;2024-01-30T11:38:11;13.73;;;8.40;;
8399;SDS011;4237;47.030;15.396;2024-01-30T11:40:42;14.93;;;7.60;;
8399;SDS011;4237;47.030;15.396;2024-01-30T11:43:12;11.83;;;8.27;;
8399;SDS011;4237;47.030;15.396;2024-01-30T11:45:40;13.33;;;8.20;;
8399;SDS011;4237;47.030;15.396;2024-01-30T11:48:11;12.03;;;7.77;;
8399;SDS011;4237;47.030;15.396;2024-01-30T11:50:40;8.70;;;7.47;;
8399;SDS011;4237;47.030;15.396;2024-01-30T11:53:09;13.07;;;8.17;;
8399;SDS011;4237;47.030;15.396;2024-01-30T12:05:44;13.27;;;8.57;;
8399;SDS011;4237;47.030;15.396;2024-01-30T12:08:16;11.23;;;8.53;;
8399;SDS011;4237;47.030;15.396;2024-01-30T12:10:44;16.30;;;10.73;;
8399;SDS011;4237;47.030;15.396;2024-01-30T12:13:13;12.53;;;9.43;;
8399;SDS011;4237;47.030;15.396;2024-01-30T12:15:42;17.23;;;8.80;;
8399;SDS011;4237;47.030;15.396;2024-01-30T12:18:11;15.67;;;9.77;;
8399;SDS011;4237;47.030;15.396;2024-01-30T12:20:40;13.30;;;8.90;;
8399;SDS011;4237;47.030;15.396;2024-01-30T12:23:08;13.20;;;9.07;;
8399;SDS011;4237;47.030;15.396;2024-01-30T12:25:38;14.23;;;9.47;;
8399;SDS011;4237;47.030;15.396;2024-01-30T12:28:07;18.27;;;11.20;;
8399;SDS011;4237;47.030;15.396;2024-01-30T12:30:35;18.27;;;11.77;;
8399;SDS011;4237;47.030;15.396;2024-01-30T12:33:04;14.87;;;10.20;;
8399;SDS011;4237;47.030;15.396;2024-01-30T12:35:34;13.43;;;10.43;;
8399;SDS011;4237;47.030;15.396;2024-01-30T12:38:03;17.77;;;11.00;;
8399;SDS011;4237;47.030;15.396;2024-01-30T12:40:33;20.60;;;11.20;;
8399;SDS011;4237;47.030;15.396;2024-01-30T12:43:01;19.43;;;11.47;;
8399;SDS011;4237;47.030;15.396;2024-01-30T12:45:30;14.27;;;11.20;;
8399;SDS011;4237;47.030;15.396;2024-01-30T12:47:59;15.63;;;12.00;;
8399;SDS011;4237;47.030;15.396;2024-01-30T12:50:27;15.93;;;12.23;;
8399;SDS011;4237;47.030;15.396;2024-01-30T12:52:56;13.73;;;12.07;;
8399;SDS011;4237;47.030;15.396;2024-01-30T12:55:24;14.97;;;12.13;;
8399;SDS011;4237;47.030;15.396;2024-01-30T12:57:55;13.07;;;11.67;;
8399;SDS011;4237;47.030;15.396;2024-01-30T13:00:23;16.03;;;12.67;;
8399;SDS011;4237;47.030;15.396;2024-01-30T13:02:52;14.33;;;11.83;;
8399;SDS011;4237;47.030;15.396;2024-01-30T13:05:21;15.03;;;11.63;;
8399;SDS011;4237;47.030;15.396;2024-01-30T13:07:50;14.43;;;11.10;;
8399;SDS011;4237;47.030;15.396;2024-01-30T13:10:20;12.70;;;10.07;;
8399;SDS011;4237;47.030;15.396;2024-01-30T13:12:48;16.60;;;10.80;;
8399;SDS011;4237;47.030;15.396;2024-01-30T13:15:17;15.87;;;11.33;;
8399;SDS011;4237;47.030;15.396;2024-01-30T13:17:46;16.47;;;11.27;;
8399;SDS011;4237;47.030;15.396;2024-01-30T13:20:15;12.23;;;10.27;;
8399;SDS011;4237;47.030;15.396;2024-01-30T13:22:47;12.77;;;9.73;;
8399;SDS011;4237;47.030;15.396;2024-01-30T13:25:16;15.97;;;11.37;;
8399;SDS011;4237;47.030;15.396;2024-01-30T13:27:45;17.90;;;12.37;;
8399;SDS011;4237;47.030;15.396;2024-01-30T13:30:14;13.03;;;11.43;;
8399;SDS011;4237;47.030;15.396;2024-01-30T13:32:43;16.03;;;11.53;;
8399;SDS011;4237;47.030;15.396;2024-01-30T13:35:11;16.50;;;11.83;;
8399;SDS011;4237;47.030;15.396;2024-01-30T13:37:40;12.57;;;11.27;;
8399;SDS011;4237;47.030;15.396;2024-01-30T13:40:09;18.00;;;12.63;;
8399;SDS011;4237;47.030;15.396;2024-01-30T13:42:38;18.37;;;12.63;;
8399;SDS011;4237;47.030;15.396;2024-01-30T13:45:07;18.80;;;12.67;;
8399;SDS011;4237;47.030;15.396;2024-01-30T13:47:36;16.53;;;12.60;;
8399;SDS011;4237;47.030;15.396;2024-01-30T13:50:05;16.80;;;12.43;;
8399;SDS011;4237;47.030;15.396;2024-01-30T13:52:34;17.97;;;11.97;;
8399;SDS011;4237;47.030;15.396;2024-01-30T13:55:03;17.17;;;12.33;;
8399;SDS011;4237;47.030;15.396;2024-01-30T13:57:31;14.60;;;11.70;;
8399;SDS011;4237;47.030;15.396;2024-01-30T14:00:02;13.53;;;11.77;;
8399;SDS011;4237;47.030;15.396;2024-01-30T14:02:34;16.67;;;12.07;;
8399;SDS011;4237;47.030;15.396;2024-01-30T14:05:03;13.57;;;12.17;;
8399;SDS011;4237;47.030;15.396;2024-01-30T14:07:32;14.47;;;11.60;;
8399;SDS011;4237;47.030;15.396;2024-01-30T14:10:01;14.47;;;11.73;;
8399;SDS011;4237;47.030;15.396;2024-01-30T14:12:30;13.47;;;11.70;;
8399;SDS011;4237;47.030;15.396;2024-01-30T14:14:58;16.23;;;11.37;;
8399;SDS011;4237;47.030;15.396;2024-01-30T14:17:27;12.00;;;10.50;;
8399;SDS011;4237;47.030;15.396;2024-01-30T14:19:55;17.37;;;11.30;;
8399;SDS011;4237;47.030;15.396;2024-01-30T14:22:24;14.77;;;11.47;;
8399;SDS011;4237;47.030;15.396;2024-01-30T14:24:52;14.80;;;11.27;;
8399;SDS011;4237;47.030;15.396;2024-01-30T14:27:23;17.00;;;12.03;;
8399;SDS011;4237;47.030;15.396;2024-01-30T14:29:51;12.57;;;10.67;;
8399;SDS011;4237;47.030;15.396;2024-01-30T14:32:20;14.00;;;10.60;;
8399;SDS011;4237;47.030;15.396;2024-01-30T14:34:50;14.03;;;11.10;;
8399;SDS011;4237;47.030;15.396;2024-01-30T14:37:21;15.80;;;10.90;;
8399;SDS011;4237;47.030;15.396;2024-01-30T14:39:50;15.20;;;10.80;;
8399;SDS011;4237;47.030;15.396;2024-01-30T14:42:19;14.30;;;10.40;;
8399;SDS011;4237;47.030;15.396;2024-01-30T14:44:47;14.13;;;10.90;;
8399;SDS011;4237;47.030;15.396;2024-01-30T14:47:16;13.27;;;10.67;;
8399;SDS011;4237;47.030;15.396;2024-01-30T14:49:44;14.77;;;10.37;;
8399;SDS011;4237;47.030;15.396;2024-01-30T14:52:13;12.70;;;10.37;;
8399;SDS011;4237;47.030;15.396;2024-01-30T14:54:41;14.93;;;11.33;;
8399;SDS011;4237;47.030;15.396;2024-01-30T14:57:10;17.30;;;10.37;;